Data for 01/20/2016

Time Sea-Level Adjusted Pressure Absolute Pressure Temperature Relative Humidity Dew Point   
(mb) (inHg) (mb) (inHg) (C) (F) (%) (C) (F)
00:05 1010 29.83 839 24.78 0.2 32.4 61 -6.4 20.6
00:10 1010 29.83 839 24.78 0.1 32.2 66 -5.5 22.1
00:15 1010 29.83 839 24.78 -0.3 31.5 70 -5.2 22.7
00:20 1010 29.83 839 24.78 -0.5 31 73 -4.8 23.3
00:25 1010 29.83 839 24.78 -0.8 30.6 78 -4.1 24.6
00:30 1010 29.83 839 24.78 -1 30.2 82 -3.7 25.4
00:35 1010 29.83 839 24.78 -1.1 30 85 -3.3 26
00:40 1010 29.83 839 24.78 -1.1 30.1 86 -3 26.5
00:45 1010 29.83 839 24.78 -1 30.1 88 -2.8 26.9
00:50 1010 29.83 839 24.78 -1 30.2 88 -2.8 27
00:55 1010 29.83 839 24.78 -1 30.2 88 -2.8 27
01:00 1010 29.83 839 24.78 -1.1 30.1 88 -2.9 26.8
01:05 1010 29.83 839 24.78 -1.2 29.8 88 -3 26.6
01:10 1010 29.83 839 24.78 -1.3 29.7 88 -3 26.6
01:15 1010 29.83 839 24.78 -1.3 29.6 88 -3.1 26.5
01:20 1010 29.83 839 24.78 -1.4 29.5 88 -3.1 26.4
01:25 1010 29.83 839 24.78 -1.3 29.6 88 -3.1 26.4
01:30 1010 29.83 839 24.78 -1.3 29.7 88 -3.1 26.5
01:35 1010 29.83 839 24.78 -1.2 29.8 87 -3.1 26.5
01:40 1010 29.83 839 24.78 -1.2 29.8 87 -3.1 26.4
01:45 1010 29.83 839 24.78 -1.1 30 86 -3.2 26.3
01:50 1010 29.83 839 24.78 -1 30.1 84 -3.3 26
01:55 1010 29.83 839 24.78 -1 30.3 83 -3.5 25.7
02:00 1010 29.83 839 24.78 -0.9 30.5 82 -3.6 25.5
02:05 1010 29.83 839 24.78 -0.7 30.7 80 -3.7 25.3
02:10 1010 29.83 839 24.78 -0.6 30.9 79 -3.8 25.2
02:15 1010 29.83 839 24.78 -0.5 31.1 79 -3.8 25.2
02:20 1010 29.83 839 24.78 -0.5 31.1 80 -3.5 25.8
02:25 1010 29.83 839 24.78 -0.6 30.9 83 -3.1 26.4
02:30 1010 29.83 839 24.78 -0.8 30.6 85 -3 26.7
02:35 1010 29.83 839 24.78 -0.9 30.5 86 -2.8 26.9
02:40 1010 29.83 839 24.78 -0.9 30.4 87 -2.8 27
02:45 1010 29.83 839 24.78 -1 30.2 89 -2.6 27.3
02:50 1010 29.83 839 24.78 -1.1 30 90 -2.6 27.3
02:55 1010 29.83 839 24.78 -1.2 29.8 90 -2.6 27.3
03:00 1010 29.83 839 24.78 -1.3 29.7 91 -2.6 27.4
03:05 1010 29.83 839 24.78 -1.3 29.7 91 -2.6 27.4
03:10 1010 29.83 839 24.78 -1.3 29.7 92 -2.5 27.5
03:15 1010 29.83 839 24.78 -1.3 29.6 92 -2.5 27.5
03:20 1010 29.83 839 24.78 -1.4 29.5 92 -2.5 27.4
03:25 1010 29.83 839 24.78 -1.5 29.3 92 -2.6 27.3
03:30 1010 29.83 839 24.78 -1.6 29.2 93 -2.6 27.3
03:35 1010 29.83 839 24.78 -1.6 29.1 93 -2.6 27.3
03:40 1010 29.83 839 24.78 -1.6 29.1 93 -2.6 27.4
03:45 1010 29.83 839 24.78 -1.7 29 93 -2.6 27.4
03:50 1010 29.83 839 24.78 -1.7 29 94 -2.6 27.3
03:55 1010 29.83 839 24.78 -1.7 29 94 -2.6 27.3
04:00 1010 29.83 839 24.78 -1.7 29 94 -2.5 27.4
04:05 1010 29.83 839 24.78 -1.7 29 94 -2.5 27.4
04:10 1010 29.83 839 24.78 -1.6 29 94 -2.5 27.5
04:15 1010 29.83 839 24.78 -1.6 29.1 94 -2.4 27.6
04:20 1010 29.83 839 24.78 -1.6 29.1 94 -2.4 27.7
04:25 1010 29.83 839 24.78 -1.6 29.2 94 -2.4 27.7
04:30 1010 29.83 840 24.81 -1.5 29.2 94 -2.4 27.7
04:35 1010 29.83 840 24.81 -1.5 29.3 94 -2.3 27.8
04:40 1010 29.83 840 24.81 -1.5 29.3 94 -2.3 27.9
04:45 1010 29.83 840 24.81 -1.4 29.5 94 -2.2 28
04:50 1011 29.85 840 24.81 -1.4 29.6 94 -2.1 28.1
04:55 1011 29.85 840 24.81 -1.3 29.6 94 -2.1 28.2
05:00 1011 29.85 840 24.81 -1.3 29.7 94 -2.1 28.2
05:05 1011 29.85 840 24.81 -1.3 29.7 94 -2.1 28.2
05:10 1011 29.85 840 24.81 -1.3 29.7 94 -2.1 28.3
05:15 1011 29.85 840 24.81 -1.3 29.7 94 -2 28.3
05:20 1011 29.85 840 24.81 -1.2 29.9 94 -2 28.5
05:25 1011 29.85 840 24.81 -1.1 30 94 -1.9 28.6
05:30 1011 29.85 840 24.81 -1.1 30 94 -1.9 28.6
05:35 1011 29.85 840 24.81 -1.1 30.1 94 -1.9 28.6
05:40 1011 29.85 840 24.81 -1.1 30.1 95 -1.9 28.7
05:45 1011 29.85 840 24.81 -1.1 30.1 94 -1.8 28.7
05:50 1011 29.85 840 24.81 -1.1 30.1 94 -1.9 28.6
05:55 1011 29.85 840 24.81 -1.1 30.1 94 -1.9 28.7
06:00 1011 29.85 840 24.81 -1.1 30 94 -1.9 28.6
06:05 1011 29.85 841 24.83 -1.1 30 95 -1.9 28.6
06:10 1011 29.85 841 24.83 -1.1 30 94 -1.9 28.5
06:15 1011 29.85 841 24.83 -1.3 29.7 94 -2.1 28.3
06:20 1011 29.85 841 24.83 -1.3 29.7 95 -2 28.4
06:25 1012 29.88 841 24.83 -1.2 29.8 94 -2 28.4
06:30 1012 29.88 841 24.83 -1.3 29.6 94 -2.1 28.2
06:35 1012 29.88 841 24.83 -1.3 29.6 94 -2.1 28.2
06:40 1012 29.88 841 24.83 -1.2 29.8 94 -2 28.3
06:45 1012 29.88 841 24.83 -1.2 29.9 94 -2 28.5
06:50 1012 29.88 841 24.83 -1.3 29.7 94 -2.1 28.1
06:55 1012 29.88 841 24.83 -1.4 29.4 94 -2.2 28
07:00 1012 29.88 841 24.83 -1.4 29.5 94 -2.2 28.1
07:05 1012 29.88 841 24.83 -1.3 29.7 94 -2.1 28.3
07:10 1012 29.88 841 24.83 -1.3 29.7 95 -2 28.3
07:15 1012 29.88 841 24.83 -1.2 29.8 94 -2 28.3
07:20 1012 29.88 842 24.86 -1.3 29.7 95 -2 28.3
07:25 1012 29.88 842 24.86 -1.2 29.9 95 -1.9 28.6
07:30 1013 29.91 842 24.86 -0.9 30.3 95 -1.7 28.9
07:35 1013 29.91 842 24.86 -0.9 30.3 95 -1.7 29
07:40 1013 29.91 842 24.86 -0.8 30.5 95 -1.6 29.1
07:45 1013 29.91 842 24.86 -0.7 30.7 95 -1.5 29.3
07:50 1013 29.91 842 24.86 -0.7 30.8 94 -1.5 29.3
07:55 1013 29.91 842 24.86 -0.8 30.6 94 -1.6 29.1
08:00 1013 29.91 842 24.86 -0.9 30.4 94 -1.7 28.9
08:05 1013 29.91 842 24.86 -0.9 30.4 94 -1.7 29
08:10 1013 29.91 842 24.86 -0.8 30.6 94 -1.6 29.1
08:15 1013 29.91 842 24.86 -0.7 30.7 94 -1.5 29.2
08:20 1013 29.91 842 24.86 -0.7 30.7 94 -1.5 29.3
08:25 1013 29.91 843 24.89 -0.7 30.7 94 -1.6 29.2
08:30 1013 29.91 843 24.89 -0.8 30.6 94 -1.6 29.1
08:35 1013 29.91 843 24.89 -0.8 30.6 94 -1.6 29.1
08:40 1014 29.94 843 24.89 -0.7 30.7 94 -1.6 29.2
08:45 1014 29.94 843 24.89 -0.7 30.7 94 -1.6 29.1
08:50 1014 29.94 843 24.89 -0.8 30.6 94 -1.7 29
08:55 1014 29.94 843 24.89 -0.7 30.7 94 -1.6 29.1
09:00 1014 29.94 843 24.89 -0.7 30.8 93 -1.6 29.1
09:05 1014 29.94 843 24.89 -0.6 30.8 93 -1.6 29.1
09:10 1014 29.94 843 24.89 -0.6 30.9 93 -1.6 29.1
09:15 1014 29.94 843 24.89 -0.6 30.9 93 -1.6 29.2
09:20 1014 29.94 843 24.89 -0.5 31.1 93 -1.5 29.3
09:25 1014 29.94 843 24.89 -0.4 31.3 93 -1.4 29.4
09:30 1014 29.94 843 24.89 -0.4 31.3 93 -1.4 29.4
09:35 1014 29.94 843 24.89 -0.3 31.4 93 -1.4 29.5
09:40 1014 29.94 843 24.89 -0.3 31.5 92 -1.4 29.5
09:45 1014 29.94 843 24.89 -0.2 31.6 92 -1.4 29.5
09:50 1014 29.94 844 24.92 -0.2 31.7 92 -1.4 29.5
09:55 1014 29.94 844 24.92 -0.3 31.5 92 -1.5 29.3
10:00 1014 29.94 844 24.92 -0.3 31.4 92 -1.5 29.4
10:05 1015 29.97 844 24.92 -0.3 31.5 92 -1.4 29.5
10:10 1015 29.97 844 24.92 -0.2 31.7 92 -1.3 29.7
10:15 1015 29.97 844 24.92 -0.2 31.7 92 -1.3 29.6
10:20 1015 29.97 844 24.92 -0.3 31.5 92 -1.4 29.5
10:25 1015 29.97 844 24.92 -0.2 31.7 92 -1.3 29.7
10:30 1015 29.97 844 24.92 -0.1 31.8 92 -1.3 29.7
10:35 1015 29.97 844 24.92 -0 32 92 -1.2 29.8
10:40 1015 29.97 844 24.92 0.1 32.3 91 -1.1 30
10:45 1015 29.97 844 24.92 0.3 32.5 91 -1.1 30
10:50 1015 29.97 844 24.92 0.4 32.7 90 -1 30.2
10:55 1015 29.97 845 24.95 0.5 32.9 90 -1 30.2
11:00 1015 29.97 845 24.95 0.6 33 89 -1 30.2
11:05 1016 30 845 24.95 0.7 33.3 88 -1 30.1
11:10 1016 30 845 24.95 0.7 33.3 88 -1.1 30.1
11:15 1016 30 845 24.95 0.9 33.6 88 -1 30.3
11:20 1016 30 845 24.95 1 33.9 87 -1 30.3
11:25 1016 30 845 24.95 1.1 34 86 -1 30.2
11:30 1016 30 845 24.95 1.2 34.1 86 -1 30.2
11:35 1016 30 845 24.95 1.2 34.2 85 -1 30.2
11:40 1016 30 845 24.95 1.3 34.3 84 -1.1 30
11:45 1016 30 845 24.95 1.2 34.1 83 -1.3 29.6
11:50 1016 30 845 24.95 1.1 34.1 83 -1.4 29.4
11:55 1016 30 845 24.95 1.1 34 83 -1.5 29.3
12:00 1016 30 846 24.98 1 33.9 81 -1.8 28.7
12:05 1016 30 846 24.98 1.4 34.4 75 -2.5 27.5
12:10 1016 30 846 24.98 1.7 35.1 73 -2.5 27.4
12:15 1016 30 846 24.98 2 35.7 72 -2.4 27.6
12:20 1016 30 846 24.98 2.2 36 71 -2.5 27.6
12:25 1016 30 846 24.98 2.1 35.8 70 -2.7 27.1
12:30 1017 30.03 846 24.98 1.7 35 74 -2.4 27.6
12:35 1017 30.03 846 24.98 1.5 34.8 74 -2.6 27.4
12:40 1017 30.03 846 24.98 1.7 35 71 -3 26.6
12:45 1017 30.03 846 24.98 1.8 35.3 71 -2.9 26.8
12:50 1017 30.03 846 24.98 2 35.6 71 -2.7 27.2
12:55 1017 30.03 846 24.98 2.1 35.8 71 -2.6 27.4
13:00 1017 30.03 846 24.98 2.2 36 71 -2.4 27.6
13:05 1017 30.03 846 24.98 2.1 35.8 73 -2.3 27.9
13:10 1017 30.03 846 24.98 2.1 35.8 73 -2.2 28
13:15 1017 30.03 846 24.98 2.2 36 73 -2.2 28
13:20 1017 30.03 846 24.98 2.2 36 74 -2 28.4
13:25 1017 30.03 846 24.98 2.2 36 73 -2.1 28.2
13:30 1017 30.03 846 24.98 2.3 36.2 73 -2.1 28.3
13:35 1017 30.03 846 24.98 2.3 36.1 73 -2 28.4
13:40 1017 30.03 846 24.98 2.4 36.2 73 -2.1 28.3
13:45 1017 30.03 846 24.98 2.4 36.4 72 -2.1 28.2
13:50 1017 30.03 846 24.98 2.5 36.6 72 -2 28.4
13:55 1017 30.03 847 25.01 2.6 36.6 71 -2.2 28
14:00 1017 30.03 847 25.01 2.3 36.2 68 -3 26.5
14:05 1017 30.03 847 25.01 2.1 35.8 65 -3.7 25.3
14:10 1017 30.03 847 25.01 2.3 36.2 63 -3.9 24.9
14:15 1017 30.03 847 25.01 2.4 36.3 64 -3.8 25.2
14:20 1017 30.03 847 25.01 2.4 36.3 64 -3.8 25.1
14:25 1018 30.06 847 25.01 2.5 36.5 63 -3.7 25.3
14:30 1018 30.06 847 25.01 2.5 36.6 64 -3.6 25.6
14:35 1018 30.06 847 25.01 2.6 36.6 64 -3.5 25.6
14:40 1018 30.06 847 25.01 2.6 36.7 64 -3.5 25.8
14:45 1018 30.06 847 25.01 2.7 36.9 66 -3.1 26.5
14:50 1018 30.06 847 25.01 2.7 36.9 68 -2.6 27.3
14:55 1018 30.06 847 25.01 2.5 36.6 69 -2.6 27.3
15:00 1018 30.06 847 25.01 2.4 36.4 69 -2.7 27.2
15:05 1018 30.06 847 25.01 2.4 36.3 67 -3.1 26.4
15:10 1018 30.06 847 25.01 2.4 36.3 67 -3.1 26.5
15:15 1018 30.06 848 25.04 2.3 36.1 67 -3.1 26.4
15:20 1018 30.06 848 25.04 2.3 36.1 67 -3.3 26.1
15:25 1018 30.06 848 25.04 2.3 36.2 67 -3.2 26.3
15:30 1018 30.06 848 25.04 2.3 36.2 63 -3.9 24.9
15:35 1019 30.09 848 25.04 2.3 36.2 64 -3.8 25.1
15:40 1019 30.09 848 25.04 2.3 36.1 65 -3.6 25.5
15:45 1019 30.09 848 25.04 2.3 36.1 65 -3.7 25.3
15:50 1019 30.09 848 25.04 2.3 36.2 65 -3.5 25.7
15:55 1019 30.09 848 25.04 2.2 36 66 -3.5 25.7
16:00 1019 30.09 848 25.04 2.3 36.1 66 -3.5 25.7
16:05 1019 30.09 848 25.04 2.3 36.1 66 -3.4 25.9
16:10 1019 30.09 848 25.04 2.3 36.1 67 -3.3 26.1
16:15 1019 30.09 849 25.07 2.2 35.9 67 -3.3 26.1
16:20 1019 30.09 849 25.07 2.2 35.9 68 -3.1 26.3
16:25 1020 30.12 849 25.07 2.1 35.8 67 -3.3 26
16:30 1020 30.12 849 25.07 2.1 35.7 68 -3.2 26.2
16:35 1020 30.12 849 25.07 2 35.6 68 -3.3 26.1
16:40 1020 30.12 849 25.07 2 35.6 69 -3.2 26.3
16:45 1020 30.12 849 25.07 2 35.6 69 -3.1 26.4
16:50 1020 30.12 849 25.07 1.9 35.5 67 -3.6 25.5
16:55 1020 30.12 849 25.07 1.6 35 68 -3.6 25.6
17:00 1020 30.12 849 25.07 1.7 35.1 68 -3.6 25.5
17:05 1020 30.12 849 25.07 1.7 35.1 68 -3.5 25.8
17:10 1020 30.12 849 25.07 1.8 35.2 68 -3.4 25.8
17:15 1020 30.12 849 25.07 1.8 35.2 68 -3.6 25.6
17:20 1020 30.12 849 25.07 1.7 35 67 -3.7 25.4
17:25 1020 30.12 850 25.1 1.5 34.7 67 -3.9 24.9
17:30 1020 30.12 850 25.1 1.4 34.5 69 -3.8 25.2
17:35 1021 30.15 850 25.1 1.1 34.1 68 -4 24.7
17:40 1021 30.15 850 25.1 1.2 34.1 66 -4.4 24.1
17:45 1021 30.15 850 25.1 1.3 34.3 65 -4.5 23.8
17:50 1021 30.15 850 25.1 1.3 34.4 64 -4.7 23.6
17:55 1021 30.15 850 25.1 1.3 34.4 63 -4.9 23.1
18:00 1021 30.15 850 25.1 1.2 34.2 65 -4.6 23.8
18:05 1021 30.15 850 25.1 1.2 34.1 66 -4.5 23.9
18:10 1021 30.15 850 25.1 1 33.7 66 -4.6 23.7
18:15 1021 30.15 850 25.1 0.9 33.6 66 -4.8 23.3
18:20 1021 30.15 850 25.1 1 33.8 64 -5.1 22.8
18:25 1021 30.15 851 25.13 1.1 34 63 -5.1 22.8
18:30 1021 30.15 851 25.13 1.2 34.1 64 -4.9 23.1
18:35 1021 30.15 851 25.13 1.2 34.1 63 -5 23
18:40 1022 30.18 851 25.13 1.2 34.2 64 -4.9 23.1
18:45 1022 30.18 851 25.13 1.2 34.2 64 -4.8 23.4
18:50 1022 30.18 851 25.13 1.2 34.1 64 -4.8 23.3
18:55 1022 30.18 851 25.13 1.1 34 65 -4.9 23.3
19:00 1022 30.18 851 25.13 0.9 33.7 65 -5 23
19:05 1022 30.18 851 25.13 0.8 33.4 67 -4.7 23.5
19:10 1022 30.18 851 25.13 0.6 33.1 67 -4.9 23.1
19:15 1022 30.18 851 25.13 0.5 32.9 66 -5.2 22.7
19:20 1022 30.18 851 25.13 0.5 32.9 65 -5.4 22.3
19:25 1022 30.18 851 25.13 0.5 32.9 64 -5.6 22
19:30 1022 30.18 851 25.13 0.5 32.9 64 -5.4 22.3
19:35 1022 30.18 851 25.13 0.6 33.1 63 -5.7 21.8
19:40 1022 30.18 851 25.13 0.8 33.4 61 -6 21.2
19:45 1022 30.18 851 25.13 1 33.8 59 -6.1 21
19:50 1022 30.18 851 25.13 1.1 34 60 -5.9 21.4
19:55 1022 30.18 851 25.13 1.1 33.9 61 -5.6 21.9
20:00 1022 30.18 851 25.13 0.9 33.6 61 -5.7 21.7
20:05 1022 30.18 851 25.13 0.9 33.6 61 -5.7 21.7
20:10 1022 30.18 851 25.13 0.8 33.5 62 -5.6 21.9
20:15 1022 30.18 851 25.13 0.5 33 63 -5.7 21.7
20:20 1022 30.18 851 25.13 0.4 32.8 63 -5.9 21.5
20:25 1022 30.18 851 25.13 0.5 32.9 63 -5.7 21.7
20:30 1022 30.18 851 25.13 0.4 32.8 63 -5.7 21.7
20:35 1022 30.18 852 25.16 0.4 32.7 64 -5.6 21.8
20:40 1022 30.18 852 25.16 0.4 32.6 64 -5.7 21.7
20:45 1022 30.18 852 25.16 0.2 32.4 65 -5.7 21.8
20:50 1022 30.18 852 25.16 0.2 32.3 63 -6.1 21.1
20:55 1022 30.18 852 25.16 0.3 32.5 64 -5.9 21.5
21:00 1023 30.21 852 25.16 0.3 32.6 62 -6.1 21
21:05 1023 30.21 852 25.16 0.4 32.8 62 -6.1 21
21:10 1023 30.21 852 25.16 0.5 32.9 61 -6.1 20.9
21:15 1023 30.21 852 25.16 0.5 32.8 61 -6.2 20.8
21:20 1023 30.21 852 25.16 0.4 32.8 61 -6.2 20.9
21:25 1023 30.21 852 25.16 0.4 32.7 61 -6.2 20.8
21:30 1023 30.21 852 25.16 0.4 32.7 61 -6.2 20.8
21:35 1023 30.21 852 25.16 0.5 32.8 61 -6.3 20.7
21:40 1023 30.21 852 25.16 0.5 32.9 62 -5.9 21.3
21:45 1023 30.21 852 25.16 0.5 32.9 63 -5.8 21.5
21:50 1023 30.21 852 25.16 0.4 32.8 62 -6 21.3
21:55 1023 30.21 853 25.19 0.4 32.7 62 -6 21.2
22:00 1023 30.21 853 25.19 0.3 32.6 64 -5.8 21.6
22:05 1023 30.21 853 25.19 0.2 32.4 63 -5.9 21.3
22:10 1023 30.21 853 25.19 0.1 32.3 65 -5.6 22
22:15 1023 30.21 853 25.19 0 32.1 65 -5.8 21.5
22:20 1023 30.21 853 25.19 -0 32 65 -5.8 21.5
22:25 1023 30.21 853 25.19 -0.1 31.9 64 -6 21.1
22:30 1024 30.24 853 25.19 -0.1 31.8 64 -6 21.2
22:35 1024 30.24 853 25.19 -0.1 31.8 64 -6 21.1
22:40 1024 30.24 853 25.19 -0.1 31.8 64 -6.2 20.9
22:45 1024 30.24 853 25.19 -0.1 31.8 64 -6.2 20.9
22:50 1024 30.24 853 25.19 -0.2 31.6 65 -6 21.2
22:55 1024 30.24 853 25.19 -0.4 31.3 64 -6.4 20.6
23:00 1024 30.24 853 25.19 -0.4 31.2 64 -6.4 20.5
23:05 1024 30.24 853 25.19 -0.5 31.1 67 -5.8 21.5
23:10 1024 30.24 853 25.19 -0.6 30.8 66 -6.3 20.6
23:15 1024 30.24 853 25.19 -0.6 30.9 66 -6.1 20.9
23:20 1024 30.24 853 25.19 -0.5 31 64 -6.5 20.4
23:25 1024 30.24 853 25.19 -0.4 31.2 65 -6.3 20.7
23:30 1024 30.24 853 25.19 -0.4 31.3 63 -6.5 20.2
23:35 1024 30.24 853 25.19 -0.3 31.4 65 -6 21.1
23:40 1024 30.24 853 25.19 -0.5 31.2 65 -6.3 20.7
23:45 1024 30.24 853 25.19 -0.5 31 64 -6.5 20.3
23:50 1024 30.24 853 25.19 -0.6 30.9 66 -6.1 21
23:55 1024 30.24 853 25.19 -0.7 30.8 65 -6.4 20.4
24:00 1024 30.24 853 25.19 -0.7 30.7 65 -6.4 20.5